Time;durP1;ratioP1;P1;durP2;ratioP2;P2;SDS_P1;SDS_P2;PMS_P1;PMS_P2;Temp;Humidity;BMP_temperature;BMP_pressure;BME280_temperature;BME280_humidity;BME280_pressure;Samples;Min_cycle;Max_cycle;Signal;HPM_P1;HPM_P2
2023/04/27 00:02:18;;;;;;;0.10;0.10;;;;;;;;;;5092107;28;20467;-74
2023/04/27 00:04:44;;;;;;;0.30;0.30;;;;;;;;;;5089437;28;20040;-74
2023/04/27 00:07:09;;;;;;;5.03;4.75;;;;;;;;;;5092292;28;20039;-74
2023/04/27 00:09:35;;;;;;;0.10;0.10;;;;;;;;;;5074212;28;20055;-74
2023/04/27 00:12:00;;;;;;;1.17;1.17;;;;;;;;;;5091954;28;20063;-74
2023/04/27 00:14:27;;;;;;;0.20;0.20;;;;;;;;;;5092612;28;20024;-73
2023/04/27 00:16:52;;;;;;;0.20;0.20;;;;;;;;;;5092837;28;20036;-73
2023/04/27 00:19:18;;;;;;;0.20;0.20;;;;;;;;;;5093788;28;20105;-73
2023/04/27 00:21:43;;;;;;;0.10;0.10;;;;;;;;;;5094172;28;20039;-74
2023/04/27 00:24:09;;;;;;;0.10;0.10;;;;;;;;;;5093849;28;20040;-74
2023/04/27 00:26:34;;;;;;;0.73;0.73;;;;;;;;;;5075817;28;20079;-74
2023/04/27 00:28:59;;;;;;;0.10;0.10;;;;;;;;;;5093878;28;20036;-74
2023/04/27 00:31:25;;;;;;;0.82;0.82;;;;;;;;;;5075721;28;20383;-73
2023/04/27 00:33:50;;;;;;;0.15;0.15;;;;;;;;;;5093694;28;20024;-73
2023/04/27 00:36:16;;;;;;;0.40;0.40;;;;;;;;;;5096791;28;20044;-74
2023/04/27 00:38:41;;;;;;;0.20;0.20;;;;;;;;;;5079310;28;20382;-74
2023/04/27 00:41:06;;;;;;;0.10;0.10;;;;;;;;;;5077490;28;20048;-73
2023/04/27 00:43:32;;;;;;;0.40;0.40;;;;;;;;;;5076152;28;20086;-73
2023/04/27 00:45:58;;;;;;;0.10;0.10;;;;;;;;;;5092581;28;20032;-74
2023/04/27 00:48:24;;;;;;;1.15;1.10;;;;;;;;;;5093974;28;20032;-73
2023/04/27 00:50:50;;;;;;;0.20;0.20;;;;;;;;;;5075344;28;20044;-73
2023/04/27 00:53:15;;;;;;;0.20;0.20;;;;;;;;;;5093671;28;20059;-74
2023/04/27 00:55:41;;;;;;;0.10;0.10;;;;;;;;;;5058279;28;20118;-74
2023/04/27 00:58:07;;;;;;;0.10;0.10;;;;;;;;;;5075218;28;20472;-74
2023/04/27 01:00:34;;;;;;;2.35;0.75;;;;;;;;;;5092230;28;20036;-74
2023/04/27 01:03:00;;;;;;;0.20;0.20;;;;;;;;;;5075274;28;20411;-73
2023/04/27 01:05:26;;;;;;;0.10;0.10;;;;;;;;;;5075115;28;20040;-73
2023/04/27 01:07:51;;;;;;;0.20;0.20;;;;;;;;;;5092524;28;20028;-73
2023/04/27 01:10:18;;;;;;;0.10;0.10;;;;;;;;;;5093133;28;20464;-74
2023/04/27 01:12:44;;;;;;;6.13;3.10;;;;;;;;;;5058447;28;20038;-74
2023/04/27 01:15:09;;;;;;;0.60;0.60;;;;;;;;;;5074936;28;20051;-73
2023/04/27 01:17:35;;;;;;;0.85;0.85;;;;;;;;;;5093201;28;20032;-73
2023/04/27 01:20:05;;;;;;;5.20;4.68;;;;;;;;;;5074710;28;20044;-74
2023/04/27 01:22:31;;;;;;;0.10;0.10;;;;;;;;;;5093472;28;20450;-73
2023/04/27 01:24:56;;;;;;;0.10;0.10;;;;;;;;;;5075055;28;20122;-73
2023/04/27 01:27:22;;;;;;;0.47;0.47;;;;;;;;;;5074196;28;20116;-73
2023/04/27 01:29:47;;;;;;;4.13;3.92;;;;;;;;;;5092954;28;20067;-73
2023/04/27 01:32:13;;;;;;;0.80;0.80;;;;;;;;;;5092911;28;20032;-74
2023/04/27 01:34:38;;;;;;;1.65;1.55;;;;;;;;;;5092841;28;20398;-73
2023/04/27 01:37:04;;;;;;;0.50;0.50;;;;;;;;;;5092859;28;20031;-73
2023/04/27 01:39:29;;;;;;;0.10;0.10;;;;;;;;;;5074822;28;20052;-74
2023/04/27 01:41:55;;;;;;;0.20;0.20;;;;;;;;;;5092884;28;20023;-74
2023/04/27 01:44:22;;;;;;;0.20;0.20;;;;;;;;;;5074772;28;20039;-74
2023/04/27 01:46:48;;;;;;;0.10;0.10;;;;;;;;;;5074616;28;20024;-72
2023/04/27 01:49:13;;;;;;;0.10;0.10;;;;;;;;;;5071299;28;20036;-73
2023/04/27 01:51:39;;;;;;;0.10;0.10;;;;;;;;;;5092878;28;20070;-74
2023/04/27 01:54:05;;;;;;;0.30;0.30;;;;;;;;;;5092872;28;20055;-74
2023/04/27 01:56:30;;;;;;;0.10;0.10;;;;;;;;;;5092242;28;20530;-73
2023/04/27 01:58:56;;;;;;;0.28;0.28;;;;;;;;;;5072747;28;20127;-73
2023/04/27 02:01:21;;;;;;;0.10;0.10;;;;;;;;;;5072147;28;20024;-73
2023/04/27 02:03:47;;;;;;;0.10;0.10;;;;;;;;;;5072893;28;20054;-73
2023/04/27 02:06:12;;;;;;;0.15;0.15;;;;;;;;;;5072573;28;20044;-73
2023/04/27 02:08:38;;;;;;;0.10;0.10;;;;;;;;;;5073083;28;20030;-72
2023/04/27 02:11:06;;;;;;;0.10;0.10;;;;;;;;;;5073509;28;20036;-73
2023/04/27 02:13:32;;;;;;;0.13;0.13;;;;;;;;;;5092114;28;20483;-73
2023/04/27 02:16:00;;;;;;;0.10;0.10;;;;;;;;;;5073319;28;20476;-73
2023/04/27 02:18:26;;;;;;;0.10;0.10;;;;;;;;;;5075006;28;20024;-72
2023/04/27 02:20:52;;;;;;;0.10;0.10;;;;;;;;;;5096067;28;20086;-73
2023/04/27 02:23:17;;;;;;;0.10;0.10;;;;;;;;;;5095815;28;20047;-73
2023/04/27 02:25:45;;;;;;;0.15;0.15;;;;;;;;;;5077694;28;20039;-73
2023/04/27 02:28:11;;;;;;;0.13;0.13;;;;;;;;;;5095866;28;20036;-73
2023/04/27 02:30:36;;;;;;;0.10;0.10;;;;;;;;;;5077657;28;20032;-73
2023/04/27 02:33:02;;;;;;;0.10;0.10;;;;;;;;;;5095386;28;20028;-73
2023/04/27 02:35:32;;;;;;;0.10;0.10;;;;;;;;;;5076731;28;20032;-74
2023/04/27 02:37:58;;;;;;;0.10;0.10;;;;;;;;;;5077359;28;20082;-74
2023/04/27 02:40:24;;;;;;;1.17;0.90;;;;;;;;;;5077353;28;20044;-74
2023/04/27 02:42:49;;;;;;;0.10;0.10;;;;;;;;;;5095500;28;20042;-73
2023/04/27 02:45:15;;;;;;;0.10;0.10;;;;;;;;;;5079472;28;20067;-73
2023/04/27 02:47:40;;;;;;;0.10;0.10;;;;;;;;;;5080034;28;20100;-72
2023/04/27 02:50:06;;;;;;;0.10;0.10;;;;;;;;;;5079699;28;20031;-72
2023/04/27 02:52:33;;;;;;;0.68;0.68;;;;;;;;;;5061304;28;20130;-72
2023/04/27 02:54:58;;;;;;;0.10;0.10;;;;;;;;;;5077880;28;20066;-72
2023/04/27 02:57:24;;;;;;;0.10;0.10;;;;;;;;;;5076944;28;20039;-71
2023/04/27 02:59:49;;;;;;;3.33;3.13;;;;;;;;;;5077392;28;20036;-72
2023/04/27 03:02:15;;;;;;;0.10;0.10;;;;;;;;;;5074124;28;20040;-72
2023/04/27 03:04:41;;;;;;;0.10;0.10;;;;;;;;;;5091250;28;20074;-73
2023/04/27 03:07:06;;;;;;;0.10;0.10;;;;;;;;;;5091641;28;20379;-73
2023/04/27 03:09:31;;;;;;;0.68;0.68;;;;;;;;;;5091567;28;20149;-73
2023/04/27 03:11:57;;;;;;;0.10;0.10;;;;;;;;;;5091258;28;20417;-72
2023/04/27 03:14:22;;;;;;;0.10;0.10;;;;;;;;;;5073331;28;20032;-73
2023/04/27 03:16:47;;;;;;;0.10;0.10;;;;;;;;;;5073352;28;20588;-73
2023/04/27 03:19:13;;;;;;;0.10;0.10;;;;;;;;;;5071963;28;20051;-74
2023/04/27 03:21:38;;;;;;;0.10;0.10;;;;;;;;;;5072535;28;20028;-74
2023/04/27 03:24:04;;;;;;;0.10;0.10;;;;;;;;;;5091279;28;20032;-74
2023/04/27 03:26:29;;;;;;;0.10;0.10;;;;;;;;;;5091358;28;20089;-74
2023/04/27 03:28:56;;;;;;;0.30;0.30;;;;;;;;;;5072988;28;20043;-73
2023/04/27 03:31:21;;;;;;;1.05;1.05;;;;;;;;;;5090547;28;20038;-73
2023/04/27 03:33:46;;;;;;;0.25;0.25;;;;;;;;;;5091369;28;20106;-73
2023/04/27 03:36:14;;;;;;;0.10;0.10;;;;;;;;;;5072826;28;20149;-73
2023/04/27 03:38:40;;;;;;;0.10;0.10;;;;;;;;;;5091060;28;20108;-73
2023/04/27 03:41:05;;;;;;;0.10;0.10;;;;;;;;;;5071699;28;20416;-73
2023/04/27 03:43:31;;;;;;;1.70;1.27;;;;;;;;;;5090860;28;20530;-73
2023/04/27 03:45:56;;;;;;;0.10;0.10;;;;;;;;;;5072595;28;20082;-73
2023/04/27 03:48:21;;;;;;;0.20;0.20;;;;;;;;;;5090644;28;20573;-73
2023/04/27 03:50:49;;;;;;;0.10;0.10;;;;;;;;;;5072571;28;20044;-73
2023/04/27 03:53:14;;;;;;;0.57;0.57;;;;;;;;;;5072189;28;20061;-73
2023/04/27 03:55:41;;;;;;;0.30;0.30;;;;;;;;;;5090602;28;20016;-73
2023/04/27 03:58:09;;;;;;;0.25;0.25;;;;;;;;;;5055219;28;20043;-73
2023/04/27 04:00:34;;;;;;;0.20;0.20;;;;;;;;;;5071032;28;20054;-73
2023/04/27 04:03:00;;;;;;;0.45;0.40;;;;;;;;;;5071950;28;20035;-74
2023/04/27 04:05:26;;;;;;;1.55;1.45;;;;;;;;;;5055498;28;20020;-73
2023/04/27 04:07:51;;;;;;;0.10;0.10;;;;;;;;;;5070931;28;20390;-73
2023/04/27 04:10:17;;;;;;;0.10;0.10;;;;;;;;;;5071606;28;20032;-73
2023/04/27 04:12:43;;;;;;;0.10;0.10;;;;;;;;;;5072076;28;20036;-73
2023/04/27 04:15:10;;;;;;;0.10;0.10;;;;;;;;;;5090092;28;20174;-73
2023/04/27 04:17:36;;;;;;;0.10;0.10;;;;;;;;;;5088838;28;20028;-73
2023/04/27 04:20:06;;;;;;;0.55;0.43;;;;;;;;;;5071564;28;20928;-74
2023/04/27 04:22:32;;;;;;;0.20;0.20;;;;;;;;;;5075173;28;20040;-73
2023/04/27 04:24:58;;;;;;;0.10;0.10;;;;;;;;;;5051760;28;20483;-73
2023/04/27 04:27:25;;;;;;;0.10;0.10;;;;;;;;;;5051800;28;20048;-74
2023/04/27 04:29:59;;;;;;;0.10;0.10;;;;;;;;;;5051169;28;20388;-73
2023/04/27 04:32:30;;;;;;;1.05;1.05;;;;;;;;;;5082076;28;20058;-74
2023/04/27 04:34:55;;;;;;;0.13;0.13;;;;;;;;;;5087262;28;20028;-74
2023/04/27 04:37:22;;;;;;;2.38;2.28;;;;;;;;;;5071558;28;20030;-75
2023/04/27 04:39:49;;;;;;;4.28;4.05;;;;;;;;;;5069886;28;20038;-75
2023/04/27 04:42:14;;;;;;;0.10;0.10;;;;;;;;;;5071186;28;20032;-74
2023/04/27 04:44:41;;;;;;;1.83;1.55;;;;;;;;;;5070715;28;20036;-73
2023/04/27 04:47:08;;;;;;;0.28;0.28;;;;;;;;;;5070414;28;20028;-73
2023/04/27 04:49:34;;;;;;;0.10;0.10;;;;;;;;;;5070901;28;20028;-73
2023/04/27 04:51:59;;;;;;;0.10;0.10;;;;;;;;;;5070634;28;20540;-73
2023/04/27 04:54:25;;;;;;;0.10;0.10;;;;;;;;;;5071805;28;20084;-73
2023/04/27 04:56:50;;;;;;;0.40;0.40;;;;;;;;;;5071290;28;20499;-72
2023/04/27 04:59:16;;;;;;;0.10;0.10;;;;;;;;;;5092722;28;20510;-73
2023/04/27 05:01:42;;;;;;;0.20;0.20;;;;;;;;;;5069903;28;20130;-72
2023/04/27 05:04:07;;;;;;;0.10;0.10;;;;;;;;;;5067074;28;20024;-73
2023/04/27 05:06:33;;;;;;;0.10;0.10;;;;;;;;;;5082174;28;20182;-74
2023/04/27 05:08:58;;;;;;;0.10;0.10;;;;;;;;;;5086041;28;20035;-73
2023/04/27 05:11:23;;;;;;;0.32;0.32;;;;;;;;;;5088598;28;20039;-73
2023/04/27 05:13:49;;;;;;;0.10;0.10;;;;;;;;;;5085603;28;20641;-75
2023/04/27 05:16:14;;;;;;;1.27;0.80;;;;;;;;;;5088029;28;20132;-74
2023/04/27 05:18:40;;;;;;;0.10;0.10;;;;;;;;;;5085837;28;20514;-74
2023/04/27 05:21:12;;;;;;;0.10;0.10;;;;;;;;;;5078796;28;20094;-74
2023/04/27 05:23:37;;;;;;;0.10;0.10;;;;;;;;;;5075070;28;20051;-74
2023/04/27 05:26:09;;;;;;;0.10;0.10;;;;;;;;;;5075384;28;20036;-74
2023/04/27 05:28:35;;;;;;;3.20;2.00;;;;;;;;;;5082983;28;20417;-74
2023/04/27 05:31:00;;;;;;;0.22;0.22;;;;;;;;;;5079018;28;20036;-74
2023/04/27 05:33:26;;;;;;;0.10;0.10;;;;;;;;;;5077945;28;20075;-75
2023/04/27 05:35:51;;;;;;;0.10;0.10;;;;;;;;;;5078772;28;20071;-75
2023/04/27 05:38:16;;;;;;;0.10;0.10;;;;;;;;;;5076334;28;20094;-74
2023/04/27 05:40:42;;;;;;;0.65;0.65;;;;;;;;;;5068742;28;20044;-73
2023/04/27 05:43:07;;;;;;;0.10;0.10;;;;;;;;;;5068905;28;20043;-73
2023/04/27 05:45:33;;;;;;;0.10;0.10;;;;;;;;;;5081650;28;20538;-74
2023/04/27 05:47:58;;;;;;;0.10;0.10;;;;;;;;;;5074629;28;20459;-73
2023/04/27 05:50:23;;;;;;;0.10;0.10;;;;;;;;;;5073934;28;20036;-73
2023/04/27 05:52:50;;;;;;;0.10;0.10;;;;;;;;;;5077941;28;20029;-72
2023/04/27 05:55:18;;;;;;;0.10;0.10;;;;;;;;;;5083293;28;20479;-73
2023/04/27 05:57:44;;;;;;;0.43;0.43;;;;;;;;;;5077765;28;20020;-74
2023/04/27 06:00:11;;;;;;;0.10;0.10;;;;;;;;;;5059463;28;20044;-75
2023/04/27 06:02:39;;;;;;;0.70;0.63;;;;;;;;;;5058868;28;20064;-75
2023/04/27 06:05:05;;;;;;;0.10;0.10;;;;;;;;;;5070427;28;20063;-74
2023/04/27 06:07:31;;;;;;;0.10;0.10;;;;;;;;;;5080510;28;20020;-74
2023/04/27 06:09:57;;;;;;;0.10;0.10;;;;;;;;;;5085444;28;20036;-74
2023/04/27 06:12:22;;;;;;;0.20;0.20;;;;;;;;;;5069300;28;20066;-73
2023/04/27 06:14:47;;;;;;;0.10;0.10;;;;;;;;;;5084122;28;20062;-73
2023/04/27 06:17:13;;;;;;;0.20;0.20;;;;;;;;;;5079626;28;20702;-72
2023/04/27 06:19:38;;;;;;;0.10;0.10;;;;;;;;;;5081444;28;20040;-73
2023/04/27 06:22:04;;;;;;;0.10;0.10;;;;;;;;;;5072327;28;20080;-72
2023/04/27 06:24:29;;;;;;;0.20;0.20;;;;;;;;;;5075416;28;20067;-73
2023/04/27 06:26:55;;;;;;;0.10;0.10;;;;;;;;;;5088028;28;20042;-73
2023/04/27 06:29:20;;;;;;;0.10;0.10;;;;;;;;;;5069275;28;20102;-72
2023/04/27 06:31:46;;;;;;;0.17;0.17;;;;;;;;;;5087764;28;20443;-72
2023/04/27 06:34:11;;;;;;;0.20;0.20;;;;;;;;;;5082524;28;20128;-72
2023/04/27 06:36:36;;;;;;;0.10;0.10;;;;;;;;;;5084425;28;20043;-71
2023/04/27 06:39:02;;;;;;;0.10;0.10;;;;;;;;;;5086111;28;20042;-72
2023/04/27 06:41:27;;;;;;;0.10;0.10;;;;;;;;;;5087368;28;20116;-73
2023/04/27 06:43:53;;;;;;;0.10;0.10;;;;;;;;;;5082506;28;20378;-72
2023/04/27 06:46:19;;;;;;;0.15;0.15;;;;;;;;;;5082821;28;20043;-69
2023/04/27 06:48:45;;;;;;;0.30;0.30;;;;;;;;;;5086917;28;20031;-69
2023/04/27 06:51:11;;;;;;;0.30;0.30;;;;;;;;;;5085009;28;20174;-70
2023/04/27 06:53:37;;;;;;;0.20;0.20;;;;;;;;;;5083336;28;20085;-69
2023/04/27 06:56:03;;;;;;;0.10;0.10;;;;;;;;;;5085932;28;20510;-69
2023/04/27 06:58:28;;;;;;;0.30;0.30;;;;;;;;;;5086370;28;20377;-69
2023/04/27 07:00:53;;;;;;;0.40;0.40;;;;;;;;;;5076775;28;20040;-69
2023/04/27 07:03:19;;;;;;;0.20;0.20;;;;;;;;;;5084631;28;20050;-69
2023/04/27 07:05:45;;;;;;;0.20;0.20;;;;;;;;;;5073630;28;20047;-70
2023/04/27 07:08:11;;;;;;;1.27;1.17;;;;;;;;;;5088835;28;20078;-69
2023/04/27 07:10:37;;;;;;;0.20;0.20;;;;;;;;;;5090509;28;20458;-69
2023/04/27 07:13:02;;;;;;;0.20;0.20;;;;;;;;;;5090848;28;20077;-69
2023/04/27 07:15:29;;;;;;;0.30;0.30;;;;;;;;;;5090123;28;20031;-69
2023/04/27 07:17:55;;;;;;;0.30;0.30;;;;;;;;;;5088123;28;20450;-69
2023/04/27 07:20:20;;;;;;;0.20;0.20;;;;;;;;;;5082767;28;20123;-70
2023/04/27 07:22:46;;;;;;;1.05;1.05;;;;;;;;;;5076544;28;20540;-70
2023/04/27 07:25:11;;;;;;;0.30;0.30;;;;;;;;;;5082061;28;20032;-69
2023/04/27 07:27:37;;;;;;;0.20;0.20;;;;;;;;;;5088945;28;20093;-69
2023/04/27 07:30:03;;;;;;;0.35;0.35;;;;;;;;;;5074161;28;20059;-70
2023/04/27 07:32:28;;;;;;;0.20;0.20;;;;;;;;;;5067912;28;20051;-68
2023/04/27 07:34:54;;;;;;;0.40;0.40;;;;;;;;;;5073036;28;20115;-69
2023/04/27 07:37:20;;;;;;;0.20;0.20;;;;;;;;;;5075772;28;20433;-69
2023/04/27 07:39:45;;;;;;;0.20;0.20;;;;;;;;;;5076272;28;20096;-69
2023/04/27 07:42:11;;;;;;;0.20;0.20;;;;;;;;;;5059743;28;20387;-69
2023/04/27 07:44:36;;;;;;;0.50;0.50;;;;;;;;;;5080015;28;20107;-69
2023/04/27 07:47:02;;;;;;;0.20;0.20;;;;;;;;;;5078685;28;20027;-68
2023/04/27 07:49:28;;;;;;;0.20;0.20;;;;;;;;;;5079501;28;20070;-69
2023/04/27 07:51:53;;;;;;;0.20;0.20;;;;;;;;;;5079474;28;20039;-68
2023/04/27 07:54:19;;;;;;;0.30;0.30;;;;;;;;;;5078095;28;20040;-69
2023/04/27 07:56:44;;;;;;;0.98;0.80;;;;;;;;;;5078819;28;20062;-69
2023/04/27 07:59:10;;;;;;;0.20;0.20;;;;;;;;;;5077520;28;20059;-68
2023/04/27 08:01:36;;;;;;;0.38;0.38;;;;;;;;;;5076894;28;20038;-69
2023/04/27 08:04:02;;;;;;;0.40;0.40;;;;;;;;;;5078374;28;20031;-68
2023/04/27 08:06:27;;;;;;;0.82;0.55;;;;;;;;;;5078080;28;20020;-69
2023/04/27 08:08:54;;;;;;;0.30;0.30;;;;;;;;;;5077199;28;20421;-68
2023/04/27 08:11:20;;;;;;;0.30;0.30;;;;;;;;;;5079167;28;20059;-68
2023/04/27 08:13:45;;;;;;;0.20;0.20;;;;;;;;;;5080991;28;20071;-69
2023/04/27 08:16:11;;;;;;;0.10;0.10;;;;;;;;;;5087754;28;20039;-69
2023/04/27 08:18:36;;;;;;;0.20;0.20;;;;;;;;;;5083922;28;20086;-69
2023/04/27 08:21:03;;;;;;;0.30;0.30;;;;;;;;;;5083486;28;20495;-68
2023/04/27 08:23:28;;;;;;;0.20;0.20;;;;;;;;;;5082232;28;20117;-68
2023/04/27 08:25:53;;;;;;;0.20;0.20;;;;;;;;;;5080013;28;20036;-68
2023/04/27 08:28:19;;;;;;;0.20;0.20;;;;;;;;;;5079036;28;20024;-69
2023/04/27 08:30:45;;;;;;;0.20;0.20;;;;;;;;;;5083336;28;20119;-69
2023/04/27 08:33:11;;;;;;;0.93;0.93;;;;;;;;;;5075567;28;20536;-69
2023/04/27 08:35:36;;;;;;;0.22;0.22;;;;;;;;;;5068219;28;20554;-69
2023/04/27 08:38:01;;;;;;;0.20;0.20;;;;;;;;;;5072826;28;20027;-69
2023/04/27 08:40:27;;;;;;;0.20;0.20;;;;;;;;;;5089316;28;20127;-69
2023/04/27 08:42:56;;;;;;;0.20;0.20;;;;;;;;;;5089307;28;20499;-69
2023/04/27 08:45:22;;;;;;;0.20;0.20;;;;;;;;;;5070902;28;20487;-68
2023/04/27 08:47:48;;;;;;;0.20;0.20;;;;;;;;;;5087868;28;20035;-69
2023/04/27 08:50:13;;;;;;;0.30;0.30;;;;;;;;;;5089256;28;20032;-68
2023/04/27 08:52:39;;;;;;;0.20;0.20;;;;;;;;;;5079714;28;20028;-68
2023/04/27 08:55:06;;;;;;;0.25;0.25;;;;;;;;;;5079966;28;20040;-69
2023/04/27 08:57:31;;;;;;;0.20;0.20;;;;;;;;;;5070976;28;20047;-69
2023/04/27 09:00:05;;;;;;;0.20;0.20;;;;;;;;;;5088377;28;20034;-69
2023/04/27 09:02:30;;;;;;;0.20;0.20;;;;;;;;;;5089089;28;20032;-69
2023/04/27 09:04:56;;;;;;;18.38;14.27;;;;;;;;;;5070601;28;20038;-69
2023/04/27 09:07:21;;;;;;;0.10;0.10;;;;;;;;;;5088175;28;20054;-68
2023/04/27 09:09:47;;;;;;;0.20;0.20;;;;;;;;;;5088214;28;20062;-69
2023/04/27 09:12:14;;;;;;;0.30;0.30;;;;;;;;;;5088741;28;20039;-70
2023/04/27 09:14:40;;;;;;;0.20;0.20;;;;;;;;;;5089610;28;20032;-73
2023/04/27 09:17:05;;;;;;;0.85;0.57;;;;;;;;;;5090131;28;20039;-71
2023/04/27 09:19:31;;;;;;;0.20;0.20;;;;;;;;;;5073151;28;20024;-72
2023/04/27 09:22:06;;;;;;;0.20;0.20;;;;;;;;;;5070709;28;20085;-72
2023/04/27 09:24:32;;;;;;;0.28;0.28;;;;;;;;;;5070880;28;20119;-72
2023/04/27 09:26:58;;;;;;;2.35;1.52;;;;;;;;;;5088698;28;20095;-73
2023/04/27 09:29:34;;;;;;;0.20;0.20;;;;;;;;;;5052543;28;20581;-75
2023/04/27 09:31:59;;;;;;;0.60;0.60;;;;;;;;;;5088079;28;20033;-74
2023/04/27 09:34:25;;;;;;;0.25;0.25;;;;;;;;;;5088419;28;20024;-74
2023/04/27 09:36:51;;;;;;;0.20;0.20;;;;;;;;;;5070373;28;20040;-73
2023/04/27 09:39:18;;;;;;;0.80;0.40;;;;;;;;;;5070106;28;20398;-73
2023/04/27 09:41:45;;;;;;;3.55;0.93;;;;;;;;;;5087468;28;20055;-74
2023/04/27 09:44:10;;;;;;;0.20;0.20;;;;;;;;;;5053512;28;20028;-74
2023/04/27 09:46:36;;;;;;;0.38;0.38;;;;;;;;;;5051656;28;20076;-75
2023/04/27 09:49:03;;;;;;;0.25;0.25;;;;;;;;;;5053334;28;20468;-74
2023/04/27 09:51:30;;;;;;;0.20;0.20;;;;;;;;;;5053358;28;20127;-74
2023/04/27 09:53:57;;;;;;;0.30;0.30;;;;;;;;;;5069592;28;20028;-74
2023/04/27 09:56:24;;;;;;;0.22;0.22;;;;;;;;;;5049509;28;20040;-74
2023/04/27 09:59:08;;;;;;;0.10;0.10;;;;;;;;;;5050036;28;20480;-74
2023/04/27 10:01:34;;;;;;;4.60;3.50;;;;;;;;;;5067611;28;20040;-73
2023/04/27 10:04:19;;;;;;;1.55;0.40;;;;;;;;;;5066031;28;20028;-75
2023/04/27 10:06:51;;;;;;;3.50;2.92;;;;;;;;;;5033417;28;20062;-74
2023/04/27 10:09:22;;;;;;;0.20;0.20;;;;;;;;;;5049680;28;20044;-74
2023/04/27 10:11:48;;;;;;;0.40;0.40;;;;;;;;;;5067002;28;20032;-75
2023/04/27 10:14:23;;;;;;;3.42;1.15;;;;;;;;;;5069679;28;20043;-74
2023/04/27 10:16:50;;;;;;;0.20;0.20;;;;;;;;;;5087973;28;20111;-74
2023/04/27 10:19:16;;;;;;;0.63;0.40;;;;;;;;;;5053060;28;20043;-74
2023/04/27 10:21:55;;;;;;;1.38;0.93;;;;;;;;;;5053138;28;20032;-73
2023/04/27 10:24:21;;;;;;;;;;;;;;;;;;5087332;28;20028;-74
2023/04/27 10:26:47;;;;;;;0.97;0.70;;;;;;;;;;5068745;28;19919;-74
2023/04/27 10:29:15;;;;;;;1.55;0.50;;;;;;;;;;5068204;28;20328;-76
2023/04/27 10:31:43;;;;;;;0.20;0.20;;;;;;;;;;5086787;28;20138;-76
2023/04/27 10:34:10;;;;;;;0.20;0.20;;;;;;;;;;5069312;28;20035;-75
2023/04/27 10:36:37;;;;;;;6.47;1.42;;;;;;;;;;5069903;28;20132;-75
2023/04/27 10:39:12;;;;;;;0.63;0.40;;;;;;;;;;5069878;28;20043;-76
2023/04/27 10:41:37;;;;;;;0.30;0.30;;;;;;;;;;5072819;28;20040;-74
2023/04/27 10:44:13;;;;;;;0.30;0.30;;;;;;;;;;5072468;28;20035;-74
2023/04/27 10:46:48;;;;;;;0.20;0.20;;;;;;;;;;5056060;28;20399;-74
2023/04/27 10:49:15;;;;;;;0.30;0.30;;;;;;;;;;5091264;28;20032;-73
2023/04/27 10:51:40;;;;;;;3.30;0.57;;;;;;;;;;5073324;28;20109;-74
2023/04/27 10:54:05;;;;;;;0.30;0.30;;;;;;;;;;5056659;28;20130;-73
2023/04/27 10:56:32;;;;;;;0.45;0.43;;;;;;;;;;5091232;28;20478;-74
2023/04/27 10:59:02;;;;;;;0.88;0.60;;;;;;;;;;5091106;28;20523;-74
2023/04/27 11:01:28;;;;;;;1.95;0.75;;;;;;;;;;5081441;28;20119;-73
2023/04/27 11:03:57;;;;;;;0.93;0.60;;;;;;;;;;5072440;28;20062;-74
2023/04/27 11:06:23;;;;;;;0.60;0.60;;;;;;;;;;5072612;28;20028;-73
2023/04/27 11:08:48;;;;;;;0.32;0.32;;;;;;;;;;5055752;28;20379;-75
2023/04/27 11:11:15;;;;;;;0.40;0.40;;;;;;;;;;5072741;28;20478;-74
2023/04/27 11:13:42;;;;;;;0.22;0.22;;;;;;;;;;5072290;28;20070;-74
2023/04/27 11:16:07;;;;;;;0.20;0.20;;;;;;;;;;5072001;28;20043;-74
2023/04/27 11:18:35;;;;;;;0.30;0.30;;;;;;;;;;5089557;28;20032;-74
2023/04/27 11:21:08;;;;;;;0.30;0.30;;;;;;;;;;5072541;28;20478;-74
2023/04/27 11:23:37;;;;;;;0.20;0.20;;;;;;;;;;5055632;28;20039;-75
2023/04/27 11:26:16;;;;;;;0.32;0.32;;;;;;;;;;5071743;28;20028;-73
2023/04/27 11:28:45;;;;;;;0.65;0.50;;;;;;;;;;5073759;28;20040;-73
2023/04/27 11:31:11;;;;;;;0.20;0.20;;;;;;;;;;5073854;28;20124;-73
2023/04/27 11:33:38;;;;;;;0.25;0.25;;;;;;;;;;5057424;28;20095;-73
2023/04/27 11:36:14;;;;;;;3.70;0.40;;;;;;;;;;5090673;28;20120;-73
2023/04/27 11:38:41;;;;;;;1.63;0.52;;;;;;;;;;5090591;28;20086;-74
2023/04/27 11:41:06;;;;;;;0.47;0.47;;;;;;;;;;5072094;28;20483;-74
2023/04/27 11:43:32;;;;;;;1.88;0.80;;;;;;;;;;5072658;28;20040;-73
2023/04/27 11:46:02;;;;;;;3.70;2.47;;;;;;;;;;5089905;28;20032;-73
2023/04/27 11:48:28;;;;;;;0.30;0.30;;;;;;;;;;5071991;28;20020;-74
2023/04/27 11:50:57;;;;;;;1.40;0.70;;;;;;;;;;5071421;28;20051;-73
2023/04/27 11:53:33;;;;;;;1.58;0.65;;;;;;;;;;5071818;28;20081;-73
2023/04/27 11:56:01;;;;;;;0.60;0.40;;;;;;;;;;5089482;28;20036;-73
2023/04/27 11:58:30;;;;;;;0.75;0.75;;;;;;;;;;5088701;28;20032;-75
2023/04/27 12:00:56;;;;;;;0.55;0.50;;;;;;;;;;5089666;28;20055;-73
2023/04/27 12:03:22;;;;;;;0.90;0.65;;;;;;;;;;5089888;28;20043;-75
2023/04/27 12:05:51;;;;;;;1.83;0.77;;;;;;;;;;5052383;28;20375;-75
2023/04/27 12:08:17;;;;;;;1.17;0.50;;;;;;;;;;5062950;28;20028;-73
2023/04/27 12:10:42;;;;;;;0.75;0.50;;;;;;;;;;5089272;28;20055;-73
2023/04/27 12:13:08;;;;;;;0.45;0.35;;;;;;;;;;5088382;28;20060;-73
2023/04/27 12:15:33;;;;;;;0.28;0.28;;;;;;;;;;5089493;28;20032;-74
2023/04/27 12:17:58;;;;;;;0.30;0.30;;;;;;;;;;5083016;28;20776;-69
2023/04/27 12:20:24;;;;;;;0.50;0.40;;;;;;;;;;5069349;28;20043;-70
2023/04/27 12:22:50;;;;;;;0.50;0.35;;;;;;;;;;5068888;28;20032;-73
2023/04/27 12:25:16;;;;;;;0.73;0.63;;;;;;;;;;5083310;28;20032;-72
2023/04/27 12:27:46;;;;;;;0.20;0.20;;;;;;;;;;5089879;28;20382;-72
2023/04/27 12:30:12;;;;;;;0.22;0.22;;;;;;;;;;5089501;28;20036;-72
2023/04/27 12:32:38;;;;;;;0.43;0.43;;;;;;;;;;5089269;28;20086;-72
2023/04/27 12:35:05;;;;;;;0.63;0.45;;;;;;;;;;5089547;28;20031;-73
2023/04/27 12:37:30;;;;;;;1.33;0.45;;;;;;;;;;5089082;28;20045;-72
2023/04/27 12:39:56;;;;;;;1.35;0.22;;;;;;;;;;5084489;28;20528;-74
2023/04/27 12:42:23;;;;;;;0.20;0.20;;;;;;;;;;5088391;28;20043;-73
2023/04/27 12:44:51;;;;;;;1.02;0.60;;;;;;;;;;5089200;28;20089;-73
2023/04/27 12:47:17;;;;;;;0.43;0.40;;;;;;;;;;5089176;28;20130;-72
2023/04/27 12:49:42;;;;;;;0.98;0.50;;;;;;;;;;5089306;28;20546;-62
2023/04/27 12:52:08;;;;;;;0.60;0.55;;;;;;;;;;5088400;28;20043;-63
2023/04/27 12:54:34;;;;;;;2.30;2.20;;;;;;;;;;5089067;28;20040;-73
2023/04/27 12:57:02;;;;;;;0.30;0.30;;;;;;;;;;5070978;28;20043;-79
2023/04/27 12:59:28;;;;;;;1.38;0.60;;;;;;;;;;5089083;28;20398;-72
2023/04/27 13:01:54;;;;;;;1.10;0.43;;;;;;;;;;5088786;28;20028;-74
2023/04/27 13:04:19;;;;;;;0.35;0.35;;;;;;;;;;5080006;28;20031;-73
2023/04/27 13:06:45;;;;;;;0.40;0.40;;;;;;;;;;5085259;28;20391;-67
2023/04/27 13:09:12;;;;;;;0.40;0.40;;;;;;;;;;5081720;28;20043;-69
2023/04/27 13:11:37;;;;;;;0.40;0.40;;;;;;;;;;5084208;28;20039;-70
2023/04/27 13:14:04;;;;;;;0.77;0.50;;;;;;;;;;5070020;28;20034;-73
2023/04/27 13:16:29;;;;;;;2.33;0.52;;;;;;;;;;5088826;28;20028;-76
2023/04/27 13:18:55;;;;;;;0.50;0.50;;;;;;;;;;5087604;28;20107;-76
2023/04/27 13:21:20;;;;;;;0.57;0.50;;;;;;;;;;5088490;28;20032;-76
2023/04/27 13:23:46;;;;;;;1.15;0.50;;;;;;;;;;5088416;28;20024;-75
2023/04/27 13:26:13;;;;;;;0.20;0.20;;;;;;;;;;5088723;28;20050;-74
2023/04/27 13:28:38;;;;;;;2.67;0.40;;;;;;;;;;5088735;28;20028;-75
2023/04/27 13:31:04;;;;;;;0.30;0.30;;;;;;;;;;5088701;28;20088;-75
2023/04/27 13:33:31;;;;;;;1.25;0.63;;;;;;;;;;5088306;28;20124;-72
2023/04/27 13:35:56;;;;;;;0.20;0.20;;;;;;;;;;5088024;28;20459;-71
2023/04/27 13:38:22;;;;;;;1.95;0.50;;;;;;;;;;5088505;28;20024;-76
2023/04/27 13:40:47;;;;;;;0.25;0.25;;;;;;;;;;5088528;28;20082;-75
2023/04/27 13:43:13;;;;;;;1.35;0.47;;;;;;;;;;5086544;28;20036;-75
2023/04/27 13:45:41;;;;;;;1.48;0.70;;;;;;;;;;5089453;28;20102;-73
2023/04/27 13:48:06;;;;;;;1.40;0.80;;;;;;;;;;5090196;28;20032;-72
2023/04/27 13:50:32;;;;;;;0.77;0.47;;;;;;;;;;5056998;28;20468;-72
2023/04/27 13:52:57;;;;;;;0.77;0.50;;;;;;;;;;5050630;28;20119;-72
2023/04/27 13:55:23;;;;;;;0.20;0.20;;;;;;;;;;5077661;28;20032;-73
2023/04/27 13:57:48;;;;;;;0.45;0.45;;;;;;;;;;5085034;28;20036;-73
2023/04/27 14:00:14;;;;;;;1.08;0.70;;;;;;;;;;5088083;28;20045;-72
2023/04/27 14:02:39;;;;;;;4.75;0.57;;;;;;;;;;5086761;28;20758;-72
2023/04/27 14:05:05;;;;;;;0.30;0.30;;;;;;;;;;5088045;28;20032;-72
2023/04/27 14:07:33;;;;;;;0.43;0.22;;;;;;;;;;5088237;28;20035;-67
2023/04/27 14:09:58;;;;;;;4.47;0.75;;;;;;;;;;5087613;28;20024;-67
2023/04/27 14:12:23;;;;;;;0.68;0.50;;;;;;;;;;5088424;28;20039;-73
2023/04/27 14:14:49;;;;;;;0.40;0.40;;;;;;;;;;5089504;28;20255;-74
2023/04/27 14:17:14;;;;;;;3.80;0.50;;;;;;;;;;5087754;28;20040;-67
2023/04/27 14:19:40;;;;;;;0.98;0.52;;;;;;;;;;5091319;28;20040;-78
2023/04/27 14:22:07;;;;;;;0.30;0.30;;;;;;;;;;5061939;28;20044;-69
2023/04/27 14:24:32;;;;;;;0.55;0.45;;;;;;;;;;5079221;28;20495;-68
2023/04/27 14:26:57;;;;;;;0.60;0.50;;;;;;;;;;5091212;28;20176;-67
2023/04/27 14:29:24;;;;;;;2.50;0.85;;;;;;;;;;5091484;28;20114;-68
2023/04/27 14:31:50;;;;;;;0.88;0.40;;;;;;;;;;5091107;28;20469;-68
2023/04/27 14:34:15;;;;;;;2.10;0.45;;;;;;;;;;5073789;28;20032;-67
2023/04/27 14:36:40;;;;;;;4.88;0.35;;;;;;;;;;5091916;28;20507;-68
2023/04/27 14:39:07;;;;;;;0.40;0.40;;;;;;;;;;5091323;28;20012;-68